Time;durP1;ratioP1;P1;durP2;ratioP2;P2;SDS_P1;SDS_P2;PMS_P1;PMS_P2;Temp;Humidity;BMP_temperature;BMP_pressure;BME280_temperature;BME280_humidity;BME280_pressure;Samples;Min_cycle;Max_cycle;Signal;HPM_P1;HPM_P2
2021/07/11 00:02:19;;;;;;;1.50;0.90;;;17.80;98.20;;;;;;5019568;28;20460;-79
2021/07/11 00:04:47;;;;;;;1.50;0.90;;;17.80;98.20;;;;;;5019752;28;20472;-80
2021/07/11 00:07:14;;;;;;;1.50;1.00;;;17.80;98.20;;;;;;5021467;28;20485;-80
2021/07/11 00:09:41;;;;;;;1.50;1.00;;;17.80;98.20;;;;;;5022668;28;20498;-80
2021/07/11 00:12:08;;;;;;;1.50;1.00;;;17.80;98.20;;;;;;5024201;28;20468;-79
2021/07/11 00:14:35;;;;;;;1.50;0.90;;;17.80;98.20;;;;;;5020041;28;20475;-79
2021/07/11 00:17:02;;;;;;;1.50;0.90;;;17.80;98.20;;;;;;5020386;28;20495;-79
2021/07/11 00:19:29;;;;;;;1.50;0.90;;;17.80;98.20;;;;;;5018732;28;20452;-79
2021/07/11 00:21:57;;;;;;;1.50;0.90;;;17.80;98.20;;;;;;5018597;28;20484;-79
2021/07/11 00:24:23;;;;;;;1.50;0.97;;;17.90;98.20;;;;;;5022297;28;20464;-79
2021/07/11 00:26:50;;;;;;;1.50;1.00;;;17.80;98.20;;;;;;5024842;28;20484;-77
2021/07/11 00:29:17;;;;;;;1.50;1.00;;;17.80;98.20;;;;;;5020156;28;20460;-78
2021/07/11 00:31:43;;;;;;;1.50;0.90;;;17.80;98.20;;;;;;5023057;28;20463;-77
2021/07/11 00:34:10;;;;;;;1.50;0.90;;;17.80;98.20;;;;;;5017237;28;20476;-78
2021/07/11 00:36:37;;;;;;;1.50;0.90;;;17.80;98.20;;;;;;5019155;28;20511;-78
2021/07/11 00:39:05;;;;;;;1.50;0.90;;;17.80;98.20;;;;;;5022907;28;20467;-77
2021/07/11 00:41:36;;;;;;;1.50;0.97;;;17.80;98.20;;;;;;5019458;28;20511;-78
2021/07/11 00:44:03;;;;;;;1.50;0.93;;;17.90;98.20;;;;;;5015689;28;20872;-78
2021/07/11 00:46:30;;;;;;;1.50;0.90;;;17.90;98.20;;;;;;5018193;28;20483;-77
2021/07/11 00:48:57;;;;;;;1.50;0.90;;;17.80;98.20;;;;;;5019851;28;20475;-77
2021/07/11 00:51:24;;;;;;;1.50;0.90;;;17.80;98.20;;;;;;5014878;28;20974;-78
2021/07/11 00:53:52;;;;;;;1.50;0.90;;;17.80;98.20;;;;;;5017039;28;20474;-77
2021/07/11 00:56:21;;;;;;;1.50;0.90;;;17.80;98.20;;;;;;5019785;28;20480;-77
2021/07/11 00:58:47;;;;;;;1.50;0.90;;;17.80;98.20;;;;;;5016889;28;20456;-77
2021/07/11 01:01:17;;;;;;;1.50;0.90;;;17.90;98.20;;;;;;5013464;28;20484;-78
2021/07/11 01:03:50;;;;;;;1.50;0.90;;;17.90;98.20;;;;;;5026472;28;20600;-78
2021/07/11 01:06:18;;;;;;;1.50;0.90;;;17.90;98.20;;;;;;5022359;28;20475;-78
2021/07/11 01:08:52;;;;;;;1.50;1.00;;;17.90;98.20;;;;;;5029526;28;20818;-77
2021/07/11 01:11:24;;;;;;;1.50;1.00;;;17.90;98.20;;;;;;5018875;28;20464;-77
2021/07/11 01:13:53;;;;;;;1.50;0.90;;;17.90;98.20;;;;;;5015036;28;20859;-78
2021/07/11 01:16:25;;;;;;;1.50;0.90;;;17.90;98.20;;;;;;5014208;28;20507;-77
2021/07/11 01:18:52;;;;;;;1.50;0.90;;;17.90;98.20;;;;;;5019970;28;20463;-78
2021/07/11 01:21:22;;;;;;;1.50;0.90;;;17.90;98.20;;;;;;5017153;28;20484;-78
2021/07/11 01:23:54;;;;;;;1.50;0.93;;;17.90;98.20;;;;;;5017499;28;20460;-77
2021/07/11 01:26:23;;;;;;;1.50;0.90;;;17.90;98.20;;;;;;5016601;28;20490;-78
2021/07/11 01:28:53;;;;;;;1.50;1.00;;;17.90;98.20;;;;;;5018433;28;20468;-78
2021/07/11 01:31:21;;;;;;;1.50;0.90;;;17.90;98.20;;;;;;5015391;28;20460;-78
2021/07/11 01:33:49;;;;;;;1.50;0.90;;;17.90;98.20;;;;;;5018317;28;20506;-78
2021/07/11 01:36:17;;;;;;;1.50;0.90;;;17.90;98.20;;;;;;5017830;28;20480;-78
2021/07/11 01:38:46;;;;;;;1.50;1.00;;;17.90;98.20;;;;;;5018724;28;20652;-78
2021/07/11 01:41:14;;;;;;;1.50;0.90;;;17.90;98.20;;;;;;5016422;28;20491;-78
2021/07/11 01:43:43;;;;;;;1.50;0.90;;;17.90;98.20;;;;;;5018455;28;20464;-78
2021/07/11 01:46:10;;;;;;;1.50;0.90;;;17.90;98.20;;;;;;5017739;28;20476;-78
2021/07/11 01:48:38;;;;;;;1.50;0.90;;;17.90;98.20;;;;;;5020028;28;20464;-78
2021/07/11 01:51:06;;;;;;;1.50;0.90;;;17.90;98.20;;;;;;5007878;28;20464;-78
2021/07/11 01:53:38;;;;;;;1.50;0.90;;;17.90;98.20;;;;;;5018900;28;20465;-79
2021/07/11 01:56:07;;;;;;;1.50;0.90;;;17.90;98.20;;;;;;5015912;28;20542;-78
2021/07/11 01:58:34;;;;;;;1.50;1.00;;;17.90;98.20;;;;;;5017249;28;20476;-78
2021/07/11 02:01:05;;;;;;;1.50;0.90;;;17.90;98.20;;;;;;5012082;28;21006;-77
2021/07/11 02:03:34;;;;;;;1.50;1.00;;;17.90;98.20;;;;;;5015004;28;20591;-77
2021/07/11 02:06:00;;;;;;;1.50;0.90;;;17.90;98.20;;;;;;5015352;28;20971;-78
2021/07/11 02:08:27;;;;;;;1.50;1.00;;;17.90;98.20;;;;;;5011273;28;20472;-78
2021/07/11 02:10:56;;;;;;;1.50;1.00;;;17.90;98.20;;;;;;5008460;28;20465;-78
2021/07/11 02:13:27;;;;;;;1.50;0.90;;;17.90;98.20;;;;;;5013313;28;20466;-78
2021/07/11 02:15:55;;;;;;;1.50;0.90;;;17.90;98.20;;;;;;5015484;28;20515;-78
2021/07/11 02:18:27;;;;;;;1.50;0.90;;;17.90;98.20;;;;;;5011617;28;20468;-77
2021/07/11 02:20:55;;;;;;;1.50;1.00;;;17.90;98.20;;;;;;5012533;28;20492;-78
2021/07/11 02:23:24;;;;;;;1.50;0.90;;;17.90;98.20;;;;;;5012866;28;20460;-78
2021/07/11 02:25:51;;;;;;;1.50;0.90;;;17.90;98.20;;;;;;5013644;28;20476;-78
2021/07/11 02:28:20;;;;;;;1.50;1.00;;;17.80;98.20;;;;;;5012163;28;20479;-78
2021/07/11 02:30:54;;;;;;;1.50;1.00;;;17.80;98.20;;;;;;5012085;28;20456;-78
2021/07/11 02:33:27;;;;;;;1.50;0.90;;;17.80;98.20;;;;;;5012491;28;20826;-78
2021/07/11 02:35:56;;;;;;;1.50;0.90;;;17.80;98.20;;;;;;5013430;28;20488;-78
2021/07/11 02:38:24;;;;;;;1.50;1.10;;;17.80;98.20;;;;;;5011653;28;20471;-78
2021/07/11 02:40:52;;;;;;;1.50;0.90;;;17.80;98.20;;;;;;5010407;28;20487;-78
2021/07/11 02:43:20;;;;;;;1.50;1.00;;;17.80;98.20;;;;;;5010579;28;20468;-78
2021/07/11 02:45:47;;;;;;;1.50;0.90;;;17.80;98.20;;;;;;5011780;28;20480;-78
2021/07/11 02:48:16;;;;;;;1.50;0.90;;;17.80;98.20;;;;;;5010813;28;20468;-78
2021/07/11 02:50:46;;;;;;;1.50;0.97;;;17.80;98.20;;;;;;5013073;28;20468;-78
2021/07/11 02:53:19;;;;;;;1.50;0.90;;;17.80;98.20;;;;;;5011284;28;20755;-78
2021/07/11 02:55:47;;;;;;;1.50;1.00;;;17.80;98.20;;;;;;5013056;28;20487;-78
2021/07/11 02:58:18;;;;;;;1.50;0.97;;;17.80;98.20;;;;;;5014623;28;20827;-78
2021/07/11 03:00:45;;;;;;;1.50;1.00;;;17.80;98.20;;;;;;5010335;28;20464;-78
2021/07/11 03:03:15;;;;;;;1.50;0.90;;;17.80;98.20;;;;;;5015435;28;20472;-79
2021/07/11 03:05:42;;;;;;;1.50;0.90;;;17.80;98.20;;;;;;5018149;28;20488;-78
2021/07/11 03:08:09;;;;;;;1.50;0.90;;;17.80;98.20;;;;;;5019687;28;20460;-79
2021/07/11 03:10:40;;;;;;;1.50;0.90;;;17.80;98.20;;;;;;5022940;28;20514;-82
2021/07/11 03:13:08;;;;;;;1.50;0.90;;;17.80;98.20;;;;;;5023320;28;20456;-82
2021/07/11 03:15:37;;;;;;;1.50;0.90;;;17.70;98.20;;;;;;5023800;28;20520;-80
2021/07/11 03:18:04;;;;;;;1.50;0.90;;;17.70;98.20;;;;;;5027156;28;20808;-83
2021/07/11 03:20:31;;;;;;;1.50;1.00;;;17.70;98.20;;;;;;5025140;28;20452;-81
2021/07/11 03:22:59;;;;;;;1.50;0.90;;;17.70;98.20;;;;;;5020878;28;20490;-82
2021/07/11 03:25:26;;;;;;;1.50;0.90;;;17.70;98.20;;;;;;5021142;28;20467;-84
2021/07/11 03:27:56;;;;;;;1.53;1.00;;;17.70;98.20;;;;;;5021780;28;20510;-83
2021/07/11 03:30:23;;;;;;;1.50;1.00;;;17.70;98.20;;;;;;5022514;28;20452;-82
2021/07/11 03:32:53;;;;;;;1.50;1.00;;;17.70;98.20;;;;;;5021120;28;20467;-82
2021/07/11 03:35:24;;;;;;;1.50;1.00;;;17.70;98.20;;;;;;5024091;28;20464;-81
2021/07/11 03:37:56;;;;;;;1.50;0.90;;;17.70;98.20;;;;;;5022517;28;20562;-83
2021/07/11 03:40:28;;;;;;;1.50;1.00;;;17.70;98.20;;;;;;5020964;28;20992;-82
2021/07/11 03:43:00;;;;;;;1.50;0.90;;;17.70;98.20;;;;;;5021531;28;20495;-82
2021/07/11 03:45:28;;;;;;;1.50;1.00;;;17.70;98.20;;;;;;5022082;28;20472;-81
2021/07/11 03:48:00;;;;;;;1.50;0.90;;;17.70;98.20;;;;;;5021301;28;20464;-83
2021/07/11 03:50:28;;;;;;;1.50;0.90;;;17.70;98.20;;;;;;5015974;28;20855;-83
2021/07/11 03:53:02;;;;;;;1.50;0.90;;;17.70;98.20;;;;;;5021855;28;20720;-81
2021/07/11 03:55:31;;;;;;;1.50;0.90;;;17.70;98.20;;;;;;5021398;28;20487;-80
2021/07/11 03:58:01;;;;;;;1.50;0.90;;;17.70;98.20;;;;;;5023617;28;20491;-82
2021/07/11 04:00:29;;;;;;;1.50;0.90;;;17.70;98.20;;;;;;5020719;28;20468;-82
2021/07/11 04:02:57;;;;;;;1.50;0.90;;;17.70;98.20;;;;;;5023494;28;20490;-83
2021/07/11 04:05:27;;;;;;;1.50;1.00;;;17.70;98.20;;;;;;5023972;28;20472;-81
2021/07/11 04:07:56;;;;;;;1.50;0.90;;;17.60;98.20;;;;;;5026382;28;20540;-82
2021/07/11 04:10:25;;;;;;;1.50;0.93;;;17.60;98.20;;;;;;5025537;28;20908;-81
2021/07/11 04:12:52;;;;;;;1.60;1.10;;;17.60;98.20;;;;;;5021061;28;20568;-79
2021/07/11 04:15:20;;;;;;;1.50;1.00;;;17.60;98.20;;;;;;5021896;28;20460;-82
2021/07/11 04:17:49;;;;;;;1.50;0.90;;;17.60;98.20;;;;;;5023712;28;20475;-82
2021/07/11 04:20:17;;;;;;;1.50;0.90;;;17.60;98.20;;;;;;5024992;28;20475;-80
2021/07/11 04:22:47;;;;;;;1.50;1.00;;;17.60;98.20;;;;;;5013214;28;20476;-80
2021/07/11 04:25:16;;;;;;;1.50;0.90;;;17.60;98.20;;;;;;5022541;28;20460;-80
2021/07/11 04:27:43;;;;;;;1.50;0.90;;;17.60;98.20;;;;;;5020453;28;20479;-81
2021/07/11 04:30:11;;;;;;;1.50;1.00;;;17.70;98.20;;;;;;5029059;28;20497;-80
2021/07/11 04:32:39;;;;;;;1.50;0.90;;;17.70;98.20;;;;;;5023370;28;20467;-79
2021/07/11 04:35:06;;;;;;;1.50;0.90;;;17.70;98.20;;;;;;5022852;28;20460;-81
2021/07/11 04:37:34;;;;;;;1.50;1.00;;;17.70;98.20;;;;;;5025967;28;21116;-81
2021/07/11 04:40:01;;;;;;;1.50;1.00;;;17.70;98.20;;;;;;5024008;28;20468;-81
2021/07/11 04:42:32;;;;;;;1.50;0.90;;;17.70;98.20;;;;;;5021582;28;20480;-80
2021/07/11 04:45:01;;;;;;;1.50;0.90;;;17.70;98.20;;;;;;5023193;28;20490;-81
2021/07/11 04:47:28;;;;;;;1.50;0.90;;;17.80;98.20;;;;;;5024530;28;20554;-81
2021/07/11 04:49:57;;;;;;;1.50;0.90;;;17.80;98.20;;;;;;5023793;28;20491;-80
2021/07/11 04:52:23;;;;;;;1.50;1.00;;;17.80;98.20;;;;;;5023770;28;20449;-80
2021/07/11 04:54:51;;;;;;;1.50;0.90;;;17.80;98.20;;;;;;5019992;28;20464;-79
2021/07/11 04:57:18;;;;;;;1.50;0.90;;;17.80;98.20;;;;;;5015737;28;20491;-83
2021/07/11 04:59:44;;;;;;;1.50;0.90;;;17.80;98.20;;;;;;5010541;28;20475;-79
2021/07/11 05:02:11;;;;;;;1.50;1.00;;;17.80;98.20;;;;;;5020310;28;20538;-80
2021/07/11 05:04:38;;;;;;;1.50;0.90;;;17.80;98.20;;;;;;5020264;28;20467;-82
2021/07/11 05:07:07;;;;;;;1.50;0.90;;;17.90;98.20;;;;;;5017397;28;20481;-81
2021/07/11 05:09:34;;;;;;;1.50;1.00;;;17.90;98.20;;;;;;5026281;28;20478;-81
2021/07/11 05:12:00;;;;;;;1.50;0.97;;;17.90;98.20;;;;;;5023768;28;20456;-81
2021/07/11 05:14:27;;;;;;;1.50;0.90;;;17.90;98.20;;;;;;5021844;28;20551;-84
2021/07/11 05:16:54;;;;;;;1.50;0.90;;;18.00;98.20;;;;;;5024875;28;20494;-81
2021/07/11 05:19:21;;;;;;;1.50;0.90;;;18.00;98.20;;;;;;5026443;28;20468;-81
2021/07/11 05:21:47;;;;;;;2.23;1.83;;;18.00;98.20;;;;;;5021250;28;20480;-82
2021/07/11 05:24:15;;;;;;;1.50;1.00;;;18.00;98.20;;;;;;5023850;28;20462;-83
2021/07/11 05:26:43;;;;;;;1.50;1.00;;;18.10;98.20;;;;;;5017301;28;20495;-80
2021/07/11 05:29:10;;;;;;;1.50;0.90;;;18.10;98.20;;;;;;5019191;28;20457;-82
2021/07/11 05:31:36;;;;;;;1.50;0.90;;;18.10;98.20;;;;;;5026031;28;20452;-81
2021/07/11 05:34:04;;;;;;;1.50;1.00;;;18.10;98.20;;;;;;5023260;28;21015;-80
2021/07/11 05:36:30;;;;;;;1.50;0.90;;;18.20;98.20;;;;;;5022975;28;20495;-81
2021/07/11 05:38:57;;;;;;;1.50;0.90;;;18.10;98.20;;;;;;5026522;28;20456;-81
2021/07/11 05:41:25;;;;;;;1.90;1.47;;;18.20;98.20;;;;;;5023070;28;20464;-81
2021/07/11 05:43:52;;;;;;;1.50;0.90;;;18.20;98.20;;;;;;5022588;28;20950;-81
2021/07/11 05:46:19;;;;;;;1.50;0.90;;;18.20;98.20;;;;;;5024236;28;20487;-81
2021/07/11 05:48:46;;;;;;;1.50;0.90;;;18.30;98.20;;;;;;5025821;28;20472;-83
2021/07/11 05:51:13;;;;;;;1.50;1.00;;;18.30;98.20;;;;;;5020321;28;20464;-82
2021/07/11 05:53:39;;;;;;;1.50;0.90;;;18.30;98.20;;;;;;5022202;28;20464;-80
2021/07/11 05:56:06;;;;;;;1.50;0.90;;;18.40;98.20;;;;;;5018984;28;21005;-82
2021/07/11 05:58:34;;;;;;;1.50;1.00;;;18.40;98.20;;;;;;5023192;28;20456;-82
2021/07/11 06:01:01;;;;;;;1.50;0.93;;;18.40;98.20;;;;;;5023180;28;20460;-79
2021/07/11 06:03:28;;;;;;;1.50;1.00;;;18.40;98.20;;;;;;5017065;28;20471;-80
2021/07/11 06:05:55;;;;;;;1.50;1.00;;;18.40;98.20;;;;;;5022593;28;20484;-82
2021/07/11 06:08:22;;;;;;;1.50;0.90;;;18.50;98.20;;;;;;5018752;28;20476;-81
2021/07/11 06:10:53;;;;;;;1.50;1.00;;;18.50;98.20;;;;;;5005041;28;20468;-79
2021/07/11 06:13:19;;;;;;;1.50;1.00;;;18.50;98.20;;;;;;5019711;28;20469;-79
2021/07/11 06:15:47;;;;;;;1.50;0.90;;;18.60;98.20;;;;;;5006556;28;20484;-78
2021/07/11 06:18:14;;;;;;;1.50;0.90;;;18.60;98.20;;;;;;5017900;28;20460;-78
2021/07/11 06:20:41;;;;;;;1.50;1.00;;;18.60;98.20;;;;;;5015062;28;20456;-78
2021/07/11 06:23:08;;;;;;;1.50;1.00;;;18.60;98.20;;;;;;5015912;28;20488;-78
2021/07/11 06:25:35;;;;;;;1.50;0.93;;;18.60;98.20;;;;;;5019736;28;20460;-78
2021/07/11 06:28:02;;;;;;;1.50;0.90;;;18.60;98.20;;;;;;5016276;28;20460;-78
2021/07/11 06:30:29;;;;;;;1.50;0.90;;;18.70;98.20;;;;;;5017895;28;20480;-78
2021/07/11 06:32:57;;;;;;;1.50;0.90;;;18.70;98.20;;;;;;5014858;28;20472;-78
2021/07/11 06:35:25;;;;;;;1.50;0.90;;;18.70;98.20;;;;;;5019170;28;20845;-79
2021/07/11 06:37:53;;;;;;;1.50;0.90;;;18.70;98.20;;;;;;5018436;28;20460;-78
2021/07/11 06:40:21;;;;;;;1.50;1.00;;;18.70;98.20;;;;;;5027145;28;20483;-79
2021/07/11 06:43:00;;;;;;;1.50;0.90;;;18.70;98.20;;;;;;5010722;28;22336;-77
2021/07/11 06:45:29;;;;;;;1.50;0.90;;;18.80;98.20;;;;;;5013139;28;20918;-77
2021/07/11 06:47:57;;;;;;;1.50;0.97;;;18.80;98.20;;;;;;5012773;28;20483;-77
2021/07/11 06:50:24;;;;;;;1.50;0.90;;;18.90;98.20;;;;;;5015307;28;20471;-77
2021/07/11 06:52:51;;;;;;;1.50;0.90;;;18.90;98.20;;;;;;5011832;28;21025;-77
2021/07/11 06:55:18;;;;;;;1.50;0.90;;;18.90;98.20;;;;;;5014668;28;20548;-78
2021/07/11 06:57:45;;;;;;;1.50;0.90;;;19.00;98.20;;;;;;5011614;28;20514;-78
2021/07/11 07:00:14;;;;;;;1.50;0.90;;;19.00;98.20;;;;;;5015513;28;20764;-78
2021/07/11 07:02:42;;;;;;;1.50;0.90;;;19.00;98.20;;;;;;5010225;28;20559;-77
2021/07/11 07:05:11;;;;;;;1.50;0.90;;;19.10;98.20;;;;;;5020720;28;20471;-77
2021/07/11 07:07:39;;;;;;;1.50;0.90;;;19.10;98.20;;;;;;5013610;28;20488;-78
2021/07/11 07:10:09;;;;;;;1.50;1.00;;;19.10;98.20;;;;;;5018665;28;20794;-77
2021/07/11 07:12:38;;;;;;;1.50;0.90;;;19.10;98.20;;;;;;5011179;28;20456;-77
2021/07/11 07:15:07;;;;;;;1.50;1.00;;;19.20;98.20;;;;;;5003383;28;20471;-77
2021/07/11 07:17:34;;;;;;;1.50;0.90;;;19.30;98.20;;;;;;5013263;28;20503;-77
2021/07/11 07:20:01;;;;;;;1.53;0.97;;;19.30;98.20;;;;;;5018430;28;20951;-77
2021/07/11 07:22:29;;;;;;;1.50;0.90;;;19.30;98.20;;;;;;5011087;28;20574;-78
2021/07/11 07:24:56;;;;;;;1.50;0.90;;;19.40;98.20;;;;;;5011022;28;20463;-77
2021/07/11 07:27:23;;;;;;;1.50;0.90;;;19.40;98.20;;;;;;5013467;28;20854;-77
2021/07/11 07:29:49;;;;;;;1.50;0.90;;;19.40;98.20;;;;;;5014406;28;20468;-77
2021/07/11 07:32:16;;;;;;;1.50;0.90;;;19.40;98.20;;;;;;5011424;28;20986;-77
2021/07/11 07:34:43;;;;;;;1.50;0.90;;;19.40;98.20;;;;;;5011974;28;20472;-77
2021/07/11 07:37:10;;;;;;;1.50;1.00;;;19.50;98.20;;;;;;5010145;28;20495;-77
2021/07/11 07:39:38;;;;;;;1.50;0.90;;;19.50;98.20;;;;;;5014833;28;20483;-77
2021/07/11 07:42:05;;;;;;;1.50;0.90;;;19.50;98.20;;;;;;5011890;28;20467;-79
2021/07/11 07:44:33;;;;;;;1.50;1.00;;;19.50;98.20;;;;;;5007014;28;20875;-76
2021/07/11 07:47:00;;;;;;;1.50;0.90;;;19.50;98.20;;;;;;5015305;28;20488;-77
2021/07/11 07:49:30;;;;;;;1.50;0.90;;;19.50;98.20;;;;;;5010788;28;20478;-76
2021/07/11 07:51:56;;;;;;;1.50;0.90;;;19.50;98.20;;;;;;5008159;28;20491;-78
2021/07/11 07:54:23;;;;;;;1.50;0.90;;;19.60;98.20;;;;;;5003665;28;20456;-77
2021/07/11 07:56:51;;;;;;;1.50;0.90;;;19.60;98.20;;;;;;5005355;28;20562;-77
2021/07/11 07:59:18;;;;;;;1.50;0.90;;;19.60;98.20;;;;;;4999192;28;20469;-77
2021/07/11 08:01:45;;;;;;;1.50;0.90;;;19.50;98.20;;;;;;5012196;28;20932;-78
2021/07/11 08:04:12;;;;;;;7.20;2.07;;;19.50;98.20;;;;;;5012311;28;20592;-78
2021/07/11 08:06:39;;;;;;;1.50;0.93;;;19.40;98.20;;;;;;5009932;28;20590;-78
2021/07/11 08:09:06;;;;;;;1.50;0.90;;;19.40;98.20;;;;;;5003511;28;20459;-78
2021/07/11 08:11:33;;;;;;;1.50;0.90;;;19.40;98.20;;;;;;4990513;28;20467;-77
2021/07/11 08:14:01;;;;;;;1.50;0.90;;;19.40;98.20;;;;;;5000564;28;20468;-77
2021/07/11 08:16:28;;;;;;;1.50;0.90;;;19.30;98.20;;;;;;5004426;28;20496;-78
2021/07/11 08:18:55;;;;;;;1.50;0.97;;;19.20;98.20;;;;;;5001697;28;20908;-77
2021/07/11 08:21:22;;;;;;;1.50;0.90;;;19.20;98.20;;;;;;5010641;28;20479;-77
2021/07/11 08:23:49;;;;;;;1.50;0.90;;;19.20;98.20;;;;;;5006688;28;20642;-79
2021/07/11 08:26:15;;;;;;;1.50;0.93;;;19.10;98.20;;;;;;5007768;28;20487;-77
2021/07/11 08:28:42;;;;;;;1.50;0.90;;;19.10;98.20;;;;;;5009493;28;20476;-77
2021/07/11 08:31:10;;;;;;;1.50;0.90;;;19.20;98.20;;;;;;5006089;28;20483;-77
2021/07/11 08:33:37;;;;;;;1.50;0.90;;;19.20;98.20;;;;;;5006726;28;20457;-77
2021/07/11 08:36:04;;;;;;;1.50;0.90;;;19.30;98.20;;;;;;5009323;28;20958;-77
2021/07/11 08:38:31;;;;;;;1.50;1.00;;;19.40;98.20;;;;;;5005186;28;20487;-77
2021/07/11 08:40:58;;;;;;;1.50;0.90;;;19.50;98.20;;;;;;5005896;28;20587;-78
2021/07/11 08:43:25;;;;;;;1.50;0.90;;;19.60;98.20;;;;;;5006402;28;20488;-77
2021/07/11 08:45:52;;;;;;;1.50;0.90;;;19.90;98.20;;;;;;5009008;28;21042;-80
2021/07/11 08:48:20;;;;;;;1.50;0.90;;;20.30;98.20;;;;;;5006332;28;20468;-80
2021/07/11 08:50:46;;;;;;;1.50;0.90;;;20.50;98.20;;;;;;5008974;28;20468;-81
2021/07/11 08:53:15;;;;;;;1.60;1.00;;;20.90;98.20;;;;;;5012120;28;20814;-82
2021/07/11 08:55:42;;;;;;;1.53;0.90;;;21.20;98.20;;;;;;5014611;28;20476;-81
2021/07/11 08:58:10;;;;;;;1.50;0.90;;;21.50;98.20;;;;;;5014150;28;20460;-83
2021/07/11 09:07:43;;;;;;;1.50;0.90;;;22.00;98.20;;;;;;4996432;28;20476;-84
2021/07/11 09:10:10;;;;;;;1.50;0.90;;;22.20;98.20;;;;;;5014768;28;20467;-83
2021/07/11 09:12:37;;;;;;;1.50;0.90;;;22.40;97.30;;;;;;5015990;28;20532;-83
2021/07/11 09:15:05;;;;;;;1.50;0.90;;;22.50;97.10;;;;;;5014076;28;20717;-83
2021/07/11 09:17:33;;;;;;;1.60;1.10;;;22.80;96.80;;;;;;5014770;28;20559;-81
2021/07/11 09:20:02;;;;;;;1.50;0.90;;;23.00;96.70;;;;;;5017906;28;20472;-83
2021/07/11 09:22:28;;;;;;;1.50;0.90;;;23.20;95.50;;;;;;5016922;28;20471;-85
2021/07/11 09:24:58;;;;;;;1.50;0.83;;;23.30;93.70;;;;;;5017022;28;20456;-81
2021/07/11 09:27:26;;;;;;;1.53;0.87;;;23.40;93.50;;;;;;5015580;28;20983;-84
2021/07/11 09:29:58;;;;;;;1.53;0.90;;;23.50;93.20;;;;;;5018808;28;20782;-83
2021/07/11 09:32:27;;;;;;;1.50;0.90;;;23.50;92.70;;;;;;5018265;28;20464;-82
2021/07/11 09:34:54;;;;;;;1.50;0.90;;;23.60;92.60;;;;;;5020582;28;20445;-84
2021/07/11 09:37:23;;;;;;;1.53;0.90;;;23.70;91.10;;;;;;5021745;28;20484;-82
2021/07/11 09:39:52;;;;;;;1.57;0.90;;;24.00;92.80;;;;;;5011586;28;20931;-82
2021/07/11 09:42:31;;;;;;;1.50;0.90;;;24.20;91.90;;;;;;5014920;28;20475;-83
2021/07/11 09:45:00;;;;;;;1.50;0.87;;;24.30;91.00;;;;;;5001997;28;20923;-84
2021/07/11 09:47:32;;;;;;;1.57;0.87;;;24.50;92.10;;;;;;5011922;28;20484;-83
2021/07/11 09:50:07;;;;;;;1.50;0.90;;;24.60;91.00;;;;;;5015959;28;20460;-83
2021/07/11 09:52:36;;;;;;;1.50;0.90;;;24.70;90.70;;;;;;5016209;28;20464;-82
2021/07/11 09:55:10;;;;;;;1.50;0.90;;;24.60;90.90;;;;;;5017872;28;20471;-82
2021/07/11 09:57:39;;;;;;;1.50;0.83;;;24.50;89.40;;;;;;5016462;28;21065;-82
2021/07/11 10:00:12;;;;;;;1.50;0.90;;;24.30;88.90;;;;;;5013229;28;20489;-81
2021/07/11 10:02:40;;;;;;;1.50;0.90;;;24.20;89.40;;;;;;5017056;28;20491;-82
2021/07/11 10:05:09;;;;;;;1.50;0.90;;;24.20;89.60;;;;;;5014178;28;20464;-83
2021/07/11 10:07:39;;;;;;;1.50;0.90;;;24.30;89.50;;;;;;5013197;28;20488;-83
2021/07/11 10:10:08;;;;;;;1.60;1.40;;;24.40;90.00;;;;;;5015914;28;20476;-84
2021/07/11 10:12:38;;;;;;;1.50;0.87;;;24.70;89.30;;;;;;5015999;28;20464;-82
2021/07/11 10:15:11;;;;;;;1.50;0.90;;;24.80;89.00;;;;;;5011021;28;20457;-84
2021/07/11 10:17:39;;;;;;;1.50;0.80;;;25.00;87.50;;;;;;5014537;28;20512;-83
2021/07/11 10:20:07;;;;;;;1.50;0.90;;;25.20;86.70;;;;;;4989506;23;20488;-80
2021/07/11 10:22:43;;;;;;;1.50;0.90;;;25.20;87.50;;;;;;4911405;28;20464;-78
2021/07/11 10:25:14;;;;;;;1.50;0.80;;;25.10;86.90;;;;;;4907142;28;21165;-80
2021/07/11 10:27:41;;;;;;;1.50;0.83;;;25.00;87.40;;;;;;4895425;28;20479;-79
2021/07/11 10:30:09;;;;;;;1.50;0.80;;;24.90;88.10;;;;;;4901944;28;20499;-82
2021/07/11 10:32:36;;;;;;;1.50;0.80;;;24.70;88.50;;;;;;4904585;29;20647;-77
2021/07/11 10:35:17;;;;;;;1.50;0.90;;;24.60;89.90;;;;;;4907921;28;20701;-78
2021/07/11 10:37:52;;;;;;;1.60;1.20;;;24.50;89.10;;;;;;4903423;28;20892;-80
2021/07/11 10:40:23;;;;;;;1.50;0.90;;;24.40;88.40;;;;;;4906027;28;20486;-78
2021/07/11 10:42:51;;;;;;;1.50;0.90;;;24.30;90.10;;;;;;4904791;28;20760;-78
2021/07/11 10:45:19;;;;;;;1.50;0.90;;;24.30;89.60;;;;;;4908016;29;20496;-78
2021/07/11 10:47:47;;;;;;;1.50;0.90;;;24.30;89.80;;;;;;4899990;28;20746;-81
2021/07/11 10:50:28;;;;;;;1.50;0.80;;;24.30;88.90;;;;;;4909795;29;21025;-81
2021/07/11 10:52:57;;;;;;;1.50;1.00;;;24.20;89.00;;;;;;4913571;28;20854;-79
2021/07/11 10:55:25;;;;;;;1.50;0.90;;;24.20;88.40;;;;;;4909207;29;20476;-78
2021/07/11 10:57:52;;;;;;;1.50;0.90;;;24.20;89.30;;;;;;4908259;29;20469;-79
2021/07/11 11:00:21;;;;;;;1.50;0.90;;;24.20;88.40;;;;;;4902170;28;20943;-77
2021/07/11 11:02:51;;;;;;;1.50;0.80;;;24.20;87.30;;;;;;4908974;28;20480;-78
2021/07/11 11:05:24;;;;;;;1.50;0.90;;;24.10;86.50;;;;;;4906594;28;20507;-80
2021/07/11 11:07:54;;;;;;;1.50;0.90;;;24.10;87.40;;;;;;4904262;28;20565;-79
2021/07/11 11:10:28;;;;;;;1.50;1.10;;;24.00;88.10;;;;;;4895347;28;20490;-79
2021/07/11 11:13:03;;;;;;;1.50;0.90;;;24.00;88.20;;;;;;4900901;29;20482;-79
2021/07/11 11:15:35;;;;;;;1.50;0.80;;;24.20;87.30;;;;;;4904142;29;20476;-80
2021/07/11 11:18:19;;;;;;;1.50;0.90;;;24.50;88.90;;;;;;4894978;28;20497;-79
2021/07/11 11:20:51;;;;;;;1.50;0.80;;;24.90;86.80;;;;;;4908337;29;20531;-79
2021/07/11 11:23:18;;;;;;;1.50;0.80;;;25.40;85.40;;;;;;4908587;29;20481;-79
2021/07/11 11:25:48;;;;;;;1.50;0.80;;;25.80;85.90;;;;;;4903446;28;20465;-80
2021/07/11 11:28:26;;;;;;;1.50;0.80;;;26.20;83.10;;;;;;4908584;29;20473;-79
2021/07/11 11:31:04;;;;;;;1.50;0.90;;;26.40;81.70;;;;;;4911830;28;20644;-80
2021/07/11 11:33:30;;;;;;;1.50;0.90;;;26.40;83.00;;;;;;4915628;28;20491;-81
2021/07/11 11:35:57;;;;;;;1.50;0.80;;;26.40;83.50;;;;;;4911615;28;20481;-79
2021/07/11 11:38:24;;;;;;;1.50;0.90;;;26.50;82.00;;;;;;4901025;28;20477;-80
2021/07/11 11:40:52;;;;;;;1.50;0.80;;;26.60;84.00;;;;;;4911389;28;20844;-81
2021/07/11 11:43:23;;;;;;;1.50;0.80;;;26.70;83.30;;;;;;4916812;29;20480;-80
2021/07/11 11:45:50;;;;;;;1.50;0.90;;;26.70;80.80;;;;;;4895685;29;20473;-81
2021/07/11 11:48:18;;;;;;;1.50;0.80;;;26.80;80.90;;;;;;4905059;29;20483;-80
2021/07/11 11:50:45;;;;;;;1.50;0.80;;;27.00;82.30;;;;;;4909198;29;20894;-80
2021/07/11 11:53:13;;;;;;;1.50;0.80;;;27.20;81.50;;;;;;4906422;29;20867;-80
2021/07/11 11:55:46;;;;;;;1.50;0.80;;;27.30;80.40;;;;;;4900339;28;20468;-80
2021/07/11 11:58:14;;;;;;;1.50;0.80;;;27.50;81.70;;;;;;4901942;29;20535;-81
2021/07/11 12:00:41;;;;;;;1.50;0.90;;;27.60;79.90;;;;;;4901008;29;20505;-83
2021/07/11 12:03:09;;;;;;;1.50;0.90;;;27.80;79.10;;;;;;4901887;28;20721;-81
2021/07/11 12:05:36;;;;;;;1.50;0.80;;;28.00;80.10;;;;;;4900359;29;20487;-79
2021/07/11 12:08:04;;;;;;;1.50;0.80;;;28.20;77.70;;;;;;4906125;29;20478;-81
2021/07/11 12:10:31;;;;;;;1.50;0.80;;;28.20;76.20;;;;;;4905698;29;21004;-81
2021/07/11 12:12:59;;;;;;;1.50;0.87;;;28.00;76.70;;;;;;4907434;28;20487;-80
2021/07/11 12:15:33;;;;;;;1.50;0.80;;;27.90;77.50;;;;;;4905392;29;20461;-81
2021/07/11 12:18:01;;;;;;;1.50;0.90;;;27.70;78.70;;;;;;4905905;29;20522;-80
2021/07/11 12:20:28;;;;;;;1.50;0.80;;;27.50;80.50;;;;;;4904409;28;20566;-82
2021/07/11 12:22:55;;;;;;;1.50;0.80;;;27.30;80.30;;;;;;4904087;28;20571;-80
2021/07/11 12:25:24;;;;;;;1.50;0.90;;;27.10;81.00;;;;;;4906550;29;20519;-79
2021/07/11 12:28:00;;;;;;;1.50;0.80;;;27.10;80.90;;;;;;4900207;28;20496;-79
2021/07/11 12:30:33;;;;;;;1.50;0.80;;;27.30;79.40;;;;;;4904658;29;20578;-80
2021/07/11 12:33:02;;;;;;;1.70;1.10;;;27.60;79.10;;;;;;4909612;29;20475;-80
2021/07/11 12:35:29;;;;;;;1.50;0.80;;;27.70;78.60;;;;;;4903947;28;20481;-78
2021/07/11 12:37:57;;;;;;;1.50;0.90;;;27.80;77.70;;;;;;4909246;29;20485;-77
2021/07/11 12:40:26;;;;;;;1.50;0.80;;;27.70;77.30;;;;;;4905495;29;20498;-79
2021/07/11 12:43:07;;;;;;;1.47;0.80;;;27.60;77.30;;;;;;4909004;28;20547;-82
2021/07/11 12:45:34;;;;;;;1.50;0.80;;;27.50;77.40;;;;;;4905996;29;20492;-82
2021/07/11 12:48:04;;;;;;;1.50;0.80;;;27.30;77.70;;;;;;4911493;29;20555;-84
2021/07/11 12:50:33;;;;;;;1.50;0.80;;;27.10;78.00;;;;;;4902270;28;20484;-80
2021/07/11 12:53:00;;;;;;;1.50;0.90;;;26.90;79.80;;;;;;4896884;29;20468;-81
2021/07/11 12:55:27;;;;;;;1.50;0.80;;;26.80;79.40;;;;;;4907481;28;20923;-81
2021/07/11 12:57:54;;;;;;;1.50;0.80;;;26.60;79.60;;;;;;4908617;28;20468;-80
2021/07/11 13:00:33;;;;;;;1.50;0.80;;;26.50;80.00;;;;;;4907416;28;20828;-80
2021/07/11 13:03:01;;;;;;;1.50;0.80;;;26.40;80.00;;;;;;4902492;29;20468;-80